Linzy — SIRU — position and weather

sailwx.info

Track history (hours):
 
Tides and Currents Weather Stations Pressure Air Temp Water Temp Dewpoint Dewpoint Depression Visibility Wind Speed Wind Dir Waves Ship Positions

Linzy

Last reported at 2015-Mar-28 10:33 UTC. Time now 2015-Mar-28 11:07 UTC.
Position N 55°23' E 014°34'.

Length 15 m.

Type: Fishing. MMSI: 265507290.

Date/timePositionNaut miles runAvg speedWind from/ knotsBaromVisibWave heightAir tempDewpointWater temp
2015-Mar-28 10:33N 55°23' E 014°34'2 1.6
2015-Mar-28 09:33N 55°25' E 014°35'3 3.1
2015-Mar-28 08:31N 55°28' E 014°35'3 2.6
2015-Mar-28 07:34N 55°30' E 014°38'3 2.7
2015-Mar-28 06:33N 55°32' E 014°41'3 3.0
2015-Mar-28 05:32N 55°34' E 014°37'4 3.6
2015-Mar-28 04:30N 55°35' E 014°31'6 5.1
2015-Mar-28 03:24N 55°33' E 014°21'13 0.8
2015-Mar-27 12:11N 55°31' E 014°44'2 3.0
2015-Mar-27 11:33N 55°32' E 014°47'4 2.1
2015-Mar-27 09:29N 55°29' E 014°53'2 2.5
2015-Mar-27 08:30N 55°30' E 014°49'4 2.8
2015-Mar-27 07:04N 55°31' E 014°42'12 2.5
2015-Mar-27 02:24N 55°33' E 014°21'0 0.0
2015-Mar-27 01:30N 55°33' E 014°21'0 0.0
2015-Mar-27 00:24N 55°33' E 014°21'0 0.0
2015-Mar-26 23:24N 55°33' E 014°21'0 0.0
2015-Mar-26 22:24N 55°33' E 014°21'0 0.0
2015-Mar-26 21:18N 55°33' E 014°21'0 0.0
2015-Mar-26 20:24N 55°33' E 014°21'0 0.0
2015-Mar-26 19:24N 55°33' E 014°21'0 0.0
2015-Mar-26 18:30N 55°33' E 014°21'0 0.0
2015-Mar-26 17:24N 55°33' E 014°21'0 0.0
2015-Mar-26 16:30N 55°33' E 014°21'0 0.0
2015-Mar-26 15:30N 55°33' E 014°21'0 0.0
2015-Mar-26 14:24N 55°33' E 014°21'0 0.0
2015-Mar-26 13:30N 55°33' E 014°21'0 0.0
2015-Mar-26 12:30N 55°33' E 014°21'0 0.0
2015-Mar-26 11:24N 55°33' E 014°21'0 0.0
2015-Mar-26 10:24N 55°33' E 014°21'0 0.0
2015-Mar-26 09:06N 55°33' E 014°21'0 0.0
2015-Mar-26 08:30N 55°33' E 014°21'0 0.0
2015-Mar-26 07:24N 55°33' E 014°21'0 0.0
2015-Mar-26 06:12N 55°33' E 014°21'0 0.0
2015-Mar-26 05:30N 55°33' E 014°21'0 0.0
2015-Mar-26 04:30N 55°33' E 014°21'0 0.0
2015-Mar-26 03:30N 55°33' E 014°21'0 0.0
2015-Mar-26 02:30N 55°33' E 014°21'0 0.0
2015-Mar-26 01:30N 55°33' E 014°21'0 0.0
2015-Mar-26 00:24N 55°33' E 014°21'0 0.0
2015-Mar-25 23:24N 55°33' E 014°21'0 0.0
2015-Mar-25 22:24N 55°33' E 014°21'0 0.0
2015-Mar-25 21:30N 55°33' E 014°21'0 0.0
2015-Mar-25 20:30N 55°33' E 014°21'0 0.0
2015-Mar-25 19:30N 55°33' E 014°21'0 0.0
2015-Mar-25 18:30N 55°33' E 014°21'0 0.0
2015-Mar-25 17:30N 55°33' E 014°21'0 0.0
2015-Mar-25 16:24N 55°33' E 014°21'0 0.0
2015-Mar-25 15:24N 55°33' E 014°21'0 0.0
2015-Mar-25 14:30N 55°33' E 014°21'0 0.0
2015-Mar-25 13:30N 55°33' E 014°21'0 0.0
2015-Mar-25 12:30N 55°33' E 014°21'0 0.0
2015-Mar-25 11:30N 55°33' E 014°21'0 0.0
2015-Mar-25 10:24N 55°33' E 014°21'0 0.0
2015-Mar-25 09:30N 55°33' E 014°21'0 0.0
2015-Mar-25 08:30N 55°33' E 014°21'0 0.0
2015-Mar-25 07:30N 55°33' E 014°21'0 0.0
2015-Mar-25 06:24N 55°33' E 014°21'0 0.0
2015-Mar-25 05:30N 55°33' E 014°21'0 0.0
2015-Mar-25 04:24N 55°33' E 014°21'0 0.0
2015-Mar-25 03:24N 55°33' E 014°21'0 0.0
2015-Mar-25 01:30N 55°33' E 014°21'0 0.0
2015-Mar-25 00:31N 55°33' E 014°21'0 0.0
2015-Mar-24 22:30N 55°33' E 014°21'0 0.0
2015-Mar-24 21:30N 55°33' E 014°21'0 0.0
2015-Mar-24 20:24N 55°33' E 014°21'0 0.0
2015-Mar-24 19:30N 55°33' E 014°21'13 6.5
2015-Mar-24 17:31N 55°21' E 014°26'7 7.2
2015-Mar-24 16:32N 55°14' E 014°30'2 2.2
2015-Mar-24 15:28N 55°12' E 014°29'1 1.5
2015-Mar-24 14:33N 55°12' E 014°27'3 3.2
2015-Mar-24 13:33N 55°13' E 014°21'4 2.7
2015-Mar-24 12:13N 55°14' E 014°15'1 1.1
2015-Mar-24 11:33N 55°14' E 014°14'3 3.1
2015-Mar-24 10:30N 55°13' E 014°08'3 3.2
2015-Mar-24 09:33N 55°12' E 014°03'7 2.3
2015-Mar-24 06:27N 55°09' E 014°14'3 3.3
2015-Mar-24 05:33N 55°12' E 014°17'8 7.7
2015-Mar-24 04:33N 55°19' E 014°19'8 7.8
2015-Mar-24 03:33N 55°27' E 014°21'6 2.9
2015-Mar-24 01:25N 55°33' E 014°22'0 0.0
2015-Mar-24 00:19N 55°33' E 014°22'0 0.0
2015-Mar-23 23:31N 55°33' E 014°22'0 0.0
2015-Mar-23 22:19N 55°33' E 014°21'0 0.0
2015-Mar-23 21:31N 55°33' E 014°21'0 0.0
2015-Mar-23 20:31N 55°33' E 014°21'0 0.0
2015-Mar-23 19:19N 55°33' E 014°21'0 0.0
2015-Mar-23 18:31N 55°33' E 014°21'0 0.0
2015-Mar-23 17:32N 55°33' E 014°21'0 0.0
2015-Mar-23 16:20N 55°33' E 014°21'0 0.0
2015-Mar-23 15:32N 55°33' E 014°22'0 0.0
2015-Mar-23 14:32N 55°33' E 014°21'0 0.0
2015-Mar-23 13:20N 55°33' E 014°22'0 0.0
2015-Mar-23 12:32N 55°33' E 014°21'0 0.0
2015-Mar-23 11:32N 55°33' E 014°21'0 0.0
2015-Mar-23 10:32N 55°33' E 014°21'0 0.0
2015-Mar-23 09:32N 55°33' E 014°22'0 0.0
2015-Mar-23 08:08N 55°33' E 014°21'0 0.0
2015-Mar-23 07:26N 55°33' E 014°22'0 0.0
2015-Mar-23 06:32N 55°33' E 014°22'0 0.0
2015-Mar-23 05:26N 55°33' E 014°21'0 0.0
2015-Mar-23 04:32N 55°33' E 014°22'0 0.0
2015-Mar-23 03:26N 55°33' E 014°22'0 0.0
2015-Mar-23 01:14N 55°33' E 014°22'0 0.0
2015-Mar-23 00:32N 55°33' E 014°22'0 0.0
2015-Mar-22 23:14N 55°33' E 014°22'0 0.0
2015-Mar-22 22:32N 55°33' E 014°21'0 0.0
2015-Mar-22 21:26N 55°33' E 014°22'0 0.0
2015-Mar-22 20:32N 55°33' E 014°21'0 0.0
2015-Mar-22 19:32N 55°33' E 014°22'0 0.0
2015-Mar-22 18:26N 55°33' E 014°22'0 0.0
2015-Mar-22 17:32N 55°33' E 014°21'0 0.0
2015-Mar-22 16:20N 55°33' E 014°21'0 0.0
2015-Mar-22 15:14N 55°33' E 014°21'0 0.0
2015-Mar-22 14:32N 55°33' E 014°22'0 0.0
2015-Mar-22 13:26N 55°33' E 014°21'0 0.0
2015-Mar-22 12:32N 55°33' E 014°21'0 0.0
2015-Mar-22 11:26N 55°33' E 014°21'0 0.0
2015-Mar-22 10:32N 55°33' E 014°21'0 0.0
2015-Mar-22 09:32N 55°33' E 014°22'0 0.0
2015-Mar-22 08:32N 55°33' E 014°22'0 0.0
2015-Mar-22 07:26N 55°33' E 014°22'0 0.0
2015-Mar-22 06:26N 55°33' E 014°21'0 0.0
2015-Mar-22 05:32N 55°33' E 014°21'0 0.0
2015-Mar-22 04:32N 55°33' E 014°21'0 0.0
2015-Mar-22 03:32N 55°33' E 014°21'0 0.0
2015-Mar-22 02:26N 55°33' E 014°22'0 0.0
2015-Mar-20 02:23N 55°33' E 014°21'0 0.0
2015-Mar-20 01:23N 55°33' E 014°21'0 0.0
2015-Mar-20 00:30N 55°33' E 014°21'0 0.0
2015-Mar-19 23:23N 55°33' E 014°21'0 0.0
2015-Mar-19 22:29N 55°33' E 014°21'0 0.0
2015-Mar-19 21:29N 55°33' E 014°21'0 0.0
2015-Mar-19 20:29N 55°33' E 014°21'0 0.0
2015-Mar-19 19:29N 55°33' E 014°21'0 0.0
2015-Mar-19 18:29N 55°33' E 014°21'4 4.5
2015-Mar-19 17:33N 55°33' E 014°29'8 8.1
2015-Mar-19 16:33N 55°33' E 014°43'2 1.5
2015-Mar-19 15:32N 55°32' E 014°46'3 2.9
2015-Mar-19 14:33N 55°31' E 014°50'3 2.7
2015-Mar-19 13:31N 55°30' E 014°55'2 2.5
2015-Mar-19 12:32N 55°29' E 014°59'2 1.7
2015-Mar-19 11:26N 55°28' E 015°02'2 2.6
2015-Mar-19 10:32N 55°30' E 014°59'3 2.4
2015-Mar-19 09:25N 55°29' E 014°54'3 3.0
2015-Mar-19 08:33N 55°30' E 014°50'3 3.1
2015-Mar-19 07:32N 55°31' E 014°45'3 3.1
2015-Mar-19 06:33N 55°33' E 014°40'3 3.1
2015-Mar-19 05:33N 55°35' E 014°36'5 4.9
2015-Mar-19 04:31N 55°34' E 014°27'3 3.3
2015-Mar-19 03:31N 55°33' E 014°22'0 0.0
2015-Mar-19 02:25N 55°33' E 014°21'9 0.9
2015-Mar-18 16:25N 55°35' E 014°38'  
Track history (hours):
 
Tides and Currents Weather Stations Pressure Air Temp Water Temp Dewpoint Dewpoint Depression Visibility Wind Speed Wind Dir Waves Ship Positions

Linzy

Last reported at 2015-Mar-28 10:33 UTC. Time now 2015-Mar-28 11:07 UTC.
Position N 55°23' E 014°34'.

Length 15 m.

Type: Fishing. MMSI: 265507290.

Date/timePositionNaut miles runAvg speedWind from/ knotsBaromVisibWave heightAir tempDewpointWater temp
2015-Mar-28 10:33N 55°23' E 014°34'2 1.6
2015-Mar-28 09:33N 55°25' E 014°35'3 3.1
2015-Mar-28 08:31N 55°28' E 014°35'3 2.6
2015-Mar-28 07:34N 55°30' E 014°38'3 2.7
2015-Mar-28 06:33N 55°32' E 014°41'3 3.0
2015-Mar-28 05:32N 55°34' E 014°37'4 3.6
2015-Mar-28 04:30N 55°35' E 014°31'6 5.1
2015-Mar-28 03:24N 55°33' E 014°21'13 0.8
2015-Mar-27 12:11N 55°31' E 014°44'2 3.0
2015-Mar-27 11:33N 55°32' E 014°47'4 2.1
2015-Mar-27 09:29N 55°29' E 014°53'2 2.5
2015-Mar-27 08:30N 55°30' E 014°49'4 2.8
2015-Mar-27 07:04N 55°31' E 014°42'12 2.5
2015-Mar-27 02:24N 55°33' E 014°21'0 0.0
2015-Mar-27 01:30N 55°33' E 014°21'0 0.0
2015-Mar-27 00:24N 55°33' E 014°21'0 0.0
2015-Mar-26 23:24N 55°33' E 014°21'0 0.0
2015-Mar-26 22:24N 55°33' E 014°21'0 0.0
2015-Mar-26 21:18N 55°33' E 014°21'0 0.0
2015-Mar-26 20:24N 55°33' E 014°21'0 0.0
2015-Mar-26 19:24N 55°33' E 014°21'0 0.0
2015-Mar-26 18:30N 55°33' E 014°21'0 0.0
2015-Mar-26 17:24N 55°33' E 014°21'0 0.0
2015-Mar-26 16:30N 55°33' E 014°21'0 0.0
2015-Mar-26 15:30N 55°33' E 014°21'0 0.0
2015-Mar-26 14:24N 55°33' E 014°21'0 0.0
2015-Mar-26 13:30N 55°33' E 014°21'0 0.0
2015-Mar-26 12:30N 55°33' E 014°21'0 0.0
2015-Mar-26 11:24N 55°33' E 014°21'0 0.0
2015-Mar-26 10:24N 55°33' E 014°21'0 0.0
2015-Mar-26 09:06N 55°33' E 014°21'0 0.0
2015-Mar-26 08:30N 55°33' E 014°21'0 0.0
2015-Mar-26 07:24N 55°33' E 014°21'0 0.0
2015-Mar-26 06:12N 55°33' E 014°21'0 0.0
2015-Mar-26 05:30N 55°33' E 014°21'0 0.0
2015-Mar-26 04:30N 55°33' E 014°21'0 0.0
2015-Mar-26 03:30N 55°33' E 014°21'0 0.0
2015-Mar-26 02:30N 55°33' E 014°21'0 0.0
2015-Mar-26 01:30N 55°33' E 014°21'0 0.0
2015-Mar-26 00:24N 55°33' E 014°21'0 0.0
2015-Mar-25 23:24N 55°33' E 014°21'0 0.0
2015-Mar-25 22:24N 55°33' E 014°21'0 0.0
2015-Mar-25 21:30N 55°33' E 014°21'0 0.0
2015-Mar-25 20:30N 55°33' E 014°21'0 0.0
2015-Mar-25 19:30N 55°33' E 014°21'0 0.0
2015-Mar-25 18:30N 55°33' E 014°21'0 0.0
2015-Mar-25 17:30N 55°33' E 014°21'0 0.0
2015-Mar-25 16:24N 55°33' E 014°21'0 0.0
2015-Mar-25 15:24N 55°33' E 014°21'0 0.0
2015-Mar-25 14:30N 55°33' E 014°21'0 0.0
2015-Mar-25 13:30N 55°33' E 014°21'0 0.0
2015-Mar-25 12:30N 55°33' E 014°21'0 0.0
2015-Mar-25 11:30N 55°33' E 014°21'0 0.0
2015-Mar-25 10:24N 55°33' E 014°21'0 0.0
2015-Mar-25 09:30N 55°33' E 014°21'0 0.0
2015-Mar-25 08:30N 55°33' E 014°21'0 0.0
2015-Mar-25 07:30N 55°33' E 014°21'0 0.0
2015-Mar-25 06:24N 55°33' E 014°21'0 0.0
2015-Mar-25 05:30N 55°33' E 014°21'0 0.0
2015-Mar-25 04:24N 55°33' E 014°21'0 0.0
2015-Mar-25 03:24N 55°33' E 014°21'0 0.0
2015-Mar-25 01:30N 55°33' E 014°21'0 0.0
2015-Mar-25 00:31N 55°33' E 014°21'0 0.0
2015-Mar-24 22:30N 55°33' E 014°21'0 0.0
2015-Mar-24 21:30N 55°33' E 014°21'0 0.0
2015-Mar-24 20:24N 55°33' E 014°21'0 0.0
2015-Mar-24 19:30N 55°33' E 014°21'13 6.5
2015-Mar-24 17:31N 55°21' E 014°26'7 7.2
2015-Mar-24 16:32N 55°14' E 014°30'2 2.2
2015-Mar-24 15:28N 55°12' E 014°29'1 1.5
2015-Mar-24 14:33N 55°12' E 014°27'3 3.2
2015-Mar-24 13:33N 55°13' E 014°21'4 2.7
2015-Mar-24 12:13N 55°14' E 014°15'1 1.1
2015-Mar-24 11:33N 55°14' E 014°14'3 3.1
2015-Mar-24 10:30N 55°13' E 014°08'3 3.2
2015-Mar-24 09:33N 55°12' E 014°03'7 2.3
2015-Mar-24 06:27N 55°09' E 014°14'3 3.3
2015-Mar-24 05:33N 55°12' E 014°17'8 7.7
2015-Mar-24 04:33N 55°19' E 014°19'8 7.8
2015-Mar-24 03:33N 55°27' E 014°21'6 2.9
2015-Mar-24 01:25N 55°33' E 014°22'0 0.0
2015-Mar-24 00:19N 55°33' E 014°22'0 0.0
2015-Mar-23 23:31N 55°33' E 014°22'0 0.0
2015-Mar-23 22:19N 55°33' E 014°21'0 0.0
2015-Mar-23 21:31N 55°33' E 014°21'0 0.0
2015-Mar-23 20:31N 55°33' E 014°21'0 0.0
2015-Mar-23 19:19N 55°33' E 014°21'0 0.0
2015-Mar-23 18:31N 55°33' E 014°21'0 0.0
2015-Mar-23 17:32N 55°33' E 014°21'0 0.0
2015-Mar-23 16:20N 55°33' E 014°21'0 0.0
2015-Mar-23 15:32N 55°33' E 014°22'0 0.0
2015-Mar-23 14:32N 55°33' E 014°21'0 0.0
2015-Mar-23 13:20N 55°33' E 014°22'0 0.0
2015-Mar-23 12:32N 55°33' E 014°21'0 0.0
2015-Mar-23 11:32N 55°33' E 014°21'0 0.0
2015-Mar-23 10:32N 55°33' E 014°21'0 0.0
2015-Mar-23 09:32N 55°33' E 014°22'0 0.0
2015-Mar-23 08:08N 55°33' E 014°21'0 0.0
2015-Mar-23 07:26N 55°33' E 014°22'0 0.0
2015-Mar-23 06:32N 55°33' E 014°22'0 0.0
2015-Mar-23 05:26N 55°33' E 014°21'0 0.0
2015-Mar-23 04:32N 55°33' E 014°22'0 0.0
2015-Mar-23 03:26N 55°33' E 014°22'0 0.0
2015-Mar-23 01:14N 55°33' E 014°22'0 0.0
2015-Mar-23 00:32N 55°33' E 014°22'0 0.0
2015-Mar-22 23:14N 55°33' E 014°22'0 0.0
2015-Mar-22 22:32N 55°33' E 014°21'0 0.0
2015-Mar-22 21:26N 55°33' E 014°22'0 0.0
2015-Mar-22 20:32N 55°33' E 014°21'0 0.0
2015-Mar-22 19:32N 55°33' E 014°22'0 0.0
2015-Mar-22 18:26N 55°33' E 014°22'0 0.0
2015-Mar-22 17:32N 55°33' E 014°21'0 0.0
2015-Mar-22 16:20N 55°33' E 014°21'0 0.0
2015-Mar-22 15:14N 55°33' E 014°21'0 0.0
2015-Mar-22 14:32N 55°33' E 014°22'0 0.0
2015-Mar-22 13:26N 55°33' E 014°21'0 0.0
2015-Mar-22 12:32N 55°33' E 014°21'0 0.0
2015-Mar-22 11:26N 55°33' E 014°21'0 0.0
2015-Mar-22 10:32N 55°33' E 014°21'0 0.0
2015-Mar-22 09:32N 55°33' E 014°22'0 0.0
2015-Mar-22 08:32N 55°33' E 014°22'0 0.0
2015-Mar-22 07:26N 55°33' E 014°22'0 0.0
2015-Mar-22 06:26N 55°33' E 014°21'0 0.0
2015-Mar-22 05:32N 55°33' E 014°21'0 0.0
2015-Mar-22 04:32N 55°33' E 014°21'0 0.0
2015-Mar-22 03:32N 55°33' E 014°21'0 0.0
2015-Mar-22 02:26N 55°33' E 014°22'0 0.0
2015-Mar-20 02:23N 55°33' E 014°21'0 0.0
2015-Mar-20 01:23N 55°33' E 014°21'0 0.0
2015-Mar-20 00:30N 55°33' E 014°21'0 0.0
2015-Mar-19 23:23N 55°33' E 014°21'0 0.0
2015-Mar-19 22:29N 55°33' E 014°21'0 0.0
2015-Mar-19 21:29N 55°33' E 014°21'0 0.0
2015-Mar-19 20:29N 55°33' E 014°21'0 0.0
2015-Mar-19 19:29N 55°33' E 014°21'0 0.0
2015-Mar-19 18:29N 55°33' E 014°21'4 4.5
2015-Mar-19 17:33N 55°33' E 014°29'8 8.1
2015-Mar-19 16:33N 55°33' E 014°43'2 1.5
2015-Mar-19 15:32N 55°32' E 014°46'3 2.9
2015-Mar-19 14:33N 55°31' E 014°50'3 2.7
2015-Mar-19 13:31N 55°30' E 014°55'2 2.5
2015-Mar-19 12:32N 55°29' E 014°59'2 1.7
2015-Mar-19 11:26N 55°28' E 015°02'2 2.6
2015-Mar-19 10:32N 55°30' E 014°59'3 2.4
2015-Mar-19 09:25N 55°29' E 014°54'3 3.0
2015-Mar-19 08:33N 55°30' E 014°50'3 3.1
2015-Mar-19 07:32N 55°31' E 014°45'3 3.1
2015-Mar-19 06:33N 55°33' E 014°40'3 3.1
2015-Mar-19 05:33N 55°35' E 014°36'5 4.9
2015-Mar-19 04:31N 55°34' E 014°27'3 3.3
2015-Mar-19 03:31N 55°33' E 014°22'0 0.0
2015-Mar-19 02:25N 55°33' E 014°21'9 0.9
2015-Mar-18 16:25N 55°35' E 014°38'  

Dump ship's entire track history